Siberia, Indiana
Current Conditions -  °F | °C
As of 1:35 AM on Wednesday 22 Oct 2014 (Local Time) from KHNB Reporting Station
Clear Clear  
Wind Chill: 40°   Ceiling: Unl
Heat Index: 43°   Visibility: 10mi
Dew Point: 37°   Wind: 5mph
Humidity: 81%   Direction: 30°NNE
Pressure: 30.2"   Gusts: NA
Location:  38.1675°N, 86.7159°W
Report Text: KHNB 220635Z AUTO 03004KT 10SM CLR 06/03 A3020 RMK AO1
Loading
Personal Weather Stations






























Interactive Weather Map
Tropical Storm Tracking
New forecast layout! Learn more

10-Day Weather Forecast

Advertisements
Track Severe Weather on mobile